Time;durP1;ratioP1;P1;durP2;ratioP2;P2;SDS_P1;SDS_P2;PMS_P1;PMS_P2;Temp;Humidity;BMP_temperature;BMP_pressure;BME280_temperature;BME280_humidity;BME280_pressure;Samples;Min_cycle;Max_cycle;Signal;HPM_P1;HPM_P2
2022/06/09 00:00:06;;;;;;;2.67;1.90;;;21.70;64.60;;;;;;5055686;28;20036;-63
2022/06/09 00:02:35;;;;;;;2.20;1.70;;;21.70;64.50;;;;;;5057195;28;20036;-62
2022/06/09 00:05:01;;;;;;;3.35;1.65;;;21.70;64.60;;;;;;5056758;28;20032;-62
2022/06/09 00:07:27;;;;;;;3.38;2.20;;;21.70;64.60;;;;;;5056211;28;20530;-63
2022/06/09 00:10:05;;;;;;;2.45;1.55;;;21.70;64.60;;;;;;5056759;28;20036;-63
2022/06/09 00:12:31;;;;;;;3.53;1.98;;;21.60;64.20;;;;;;5057102;28;20032;-62
2022/06/09 00:14:57;;;;;;;4.78;2.10;;;21.70;64.40;;;;;;5057391;28;20447;-64
2022/06/09 00:17:24;;;;;;;4.00;1.95;;;21.70;64.40;;;;;;5054930;28;20075;-62
2022/06/09 00:19:49;;;;;;;2.50;1.48;;;21.70;64.30;;;;;;5056428;28;20055;-63
2022/06/09 00:22:15;;;;;;;4.22;2.00;;;21.70;64.30;;;;;;5056045;28;20036;-62
2022/06/09 00:24:40;;;;;;;3.65;1.98;;;21.70;64.30;;;;;;5056595;28;20094;-61
2022/06/09 00:27:06;;;;;;;2.70;1.88;;;21.60;64.20;;;;;;5058131;28;20044;-62
2022/06/09 00:29:32;;;;;;;3.35;1.83;;;21.60;64.20;;;;;;5055072;28;20491;-62
2022/06/09 00:31:57;;;;;;;3.03;1.70;;;21.60;64.10;;;;;;5054286;28;20127;-63
2022/06/09 00:34:23;;;;;;;3.53;1.60;;;21.70;64.10;;;;;;5056756;28;20091;-62
2022/06/09 00:36:49;;;;;;;3.00;1.73;;;21.60;64.00;;;;;;5053960;28;20071;-61
2022/06/09 00:39:14;;;;;;;2.33;1.88;;;21.60;64.00;;;;;;5056692;28;20119;-62
2022/06/09 00:41:42;;;;;;;2.60;1.65;;;21.60;64.00;;;;;;5057980;28;20044;-62
2022/06/09 00:44:18;;;;;;;2.42;1.65;;;21.60;63.90;;;;;;5055288;28;20040;-63
2022/06/09 00:46:49;;;;;;;3.00;1.60;;;21.60;63.80;;;;;;5055090;28;20049;-61
2022/06/09 00:49:26;;;;;;;2.83;1.60;;;21.60;63.90;;;;;;5037473;28;20115;-62
2022/06/09 00:51:56;;;;;;;3.10;1.67;;;21.60;63.70;;;;;;5056012;28;20041;-61
2022/06/09 00:54:42;;;;;;;3.60;1.53;;;21.60;63.70;;;;;;5054947;28;20071;-63
2022/06/09 00:57:17;;;;;;;4.00;1.70;;;21.60;63.50;;;;;;5055860;28;20117;-62
2022/06/09 00:59:47;;;;;;;3.38;1.70;;;21.60;63.60;;;;;;5055720;28;20127;-63
2022/06/09 01:02:18;;;;;;;3.35;1.80;;;21.60;63.60;;;;;;5053020;28;20045;-62
2022/06/09 01:04:47;;;;;;;3.15;1.60;;;21.60;64.30;;;;;;5053269;28;20052;-64
2022/06/09 01:07:20;;;;;;;2.67;2.00;;;21.60;63.60;;;;;;5052592;28;20087;-62
2022/06/09 01:09:45;;;;;;;2.25;1.60;;;21.60;63.60;;;;;;5049038;28;20051;-63
2022/06/09 01:12:30;;;;;;;4.07;1.80;;;21.60;63.50;;;;;;5053223;28;20100;-61
2022/06/09 01:15:06;;;;;;;3.22;1.40;;;21.60;63.30;;;;;;5055646;28;20680;-63
2022/06/09 01:17:35;;;;;;;3.63;1.85;;;21.60;63.30;;;;;;5055674;28;20062;-62
2022/06/09 01:20:37;;;;;;;4.72;1.85;;;21.60;63.40;;;;;;5054484;28;20090;-63
2022/06/09 01:23:18;;;;;;;2.03;1.60;;;21.60;63.10;;;;;;5055669;28;20064;-62
2022/06/09 01:25:53;;;;;;;2.47;1.60;;;21.60;63.30;;;;;;5053805;28;20056;-62
2022/06/09 01:28:53;;;;;;;4.22;1.77;;;21.60;63.20;;;;;;5054863;28;20044;-62
2022/06/09 01:31:18;;;;;;;3.85;1.52;;;21.60;63.00;;;;;;5056146;28;20032;-62
2022/06/09 01:33:57;;;;;;;2.88;1.77;;;21.50;63.20;;;;;;5056198;28;20057;-62
2022/06/09 01:36:29;;;;;;;4.53;1.90;;;21.60;63.20;;;;;;5054743;28;20080;-62
2022/06/09 01:38:57;;;;;;;4.85;2.13;;;21.60;63.20;;;;;;5054554;28;20337;-63
2022/06/09 01:41:24;;;;;;;3.33;1.95;;;21.50;63.10;;;;;;5035778;28;20052;-63
2022/06/09 01:43:51;;;;;;;2.35;1.58;;;21.60;63.10;;;;;;5048683;28;20405;-62
2022/06/09 01:46:33;;;;;;;1.85;1.40;;;21.60;63.10;;;;;;5055201;28;20036;-63
2022/06/09 01:49:26;;;;;;;3.30;1.58;;;21.60;63.10;;;;;;5056327;28;20851;-62
2022/06/09 01:51:53;;;;;;;3.70;1.90;;;21.50;62.70;;;;;;5042801;28;20374;-63
2022/06/09 01:54:28;;;;;;;2.53;1.58;;;21.50;63.10;;;;;;5053616;28;20416;-62
2022/06/09 01:57:01;;;;;;;2.22;1.50;;;21.50;62.90;;;;;;5051842;28;20157;-62
2022/06/09 01:59:42;;;;;;;2.38;1.38;;;21.50;62.90;;;;;;5054391;28;20068;-62
2022/06/09 02:02:16;;;;;;;3.72;1.70;;;21.50;62.80;;;;;;5053107;28;20560;-62
2022/06/09 02:04:50;;;;;;;2.35;1.52;;;21.50;62.80;;;;;;5053390;28;20040;-62
2022/06/09 02:07:18;;;;;;;3.45;1.40;;;21.50;62.80;;;;;;5053316;28;20887;-62
2022/06/09 02:09:45;;;;;;;3.65;1.50;;;21.50;62.80;;;;;;5053748;28;20463;-62
2022/06/09 02:12:14;;;;;;;2.40;1.50;;;21.50;62.80;;;;;;5054384;28;20056;-62
2022/06/09 02:14:47;;;;;;;4.20;1.70;;;21.50;62.70;;;;;;5054712;28;20443;-61
2022/06/09 02:17:13;;;;;;;4.13;2.03;;;21.50;62.70;;;;;;5055141;28;20542;-62
2022/06/09 02:19:41;;;;;;;3.53;1.55;;;21.50;62.70;;;;;;5054461;28;20037;-62
2022/06/09 02:22:10;;;;;;;2.20;1.35;;;21.50;62.70;;;;;;5051923;28;20488;-61
2022/06/09 02:24:36;;;;;;;3.78;1.63;;;21.50;62.60;;;;;;5054089;28;20041;-62
2022/06/09 02:27:02;;;;;;;3.55;1.65;;;21.50;62.50;;;;;;5054606;28;20044;-62
2022/06/09 02:29:27;;;;;;;3.72;1.65;;;21.50;62.60;;;;;;5054626;28;20375;-62
2022/06/09 02:31:54;;;;;;;4.40;1.63;;;21.50;62.60;;;;;;5037916;28;20045;-62
2022/06/09 02:34:20;;;;;;;2.45;1.50;;;21.50;62.60;;;;;;5055639;28;20045;-62
2022/06/09 02:36:47;;;;;;;3.88;1.70;;;21.50;62.50;;;;;;5058521;28;20036;-62
2022/06/09 02:39:12;;;;;;;4.00;1.75;;;21.50;62.50;;;;;;5057633;28;20083;-62
2022/06/09 02:41:39;;;;;;;5.38;1.90;;;21.50;62.50;;;;;;5059910;28;20082;-63
2022/06/09 02:44:05;;;;;;;3.33;1.52;;;21.50;63.30;;;;;;5057992;28;20115;-62
2022/06/09 02:46:31;;;;;;;4.22;1.60;;;21.50;62.50;;;;;;5056308;28;20135;-62
2022/06/09 02:48:57;;;;;;;2.83;1.40;;;21.50;62.50;;;;;;5057872;28;20035;-62
2022/06/09 02:51:26;;;;;;;3.35;1.65;;;21.50;62.40;;;;;;5058142;28;20476;-61
2022/06/09 02:53:53;;;;;;;3.65;1.73;;;21.50;62.40;;;;;;5058573;28;20037;-62
2022/06/09 02:56:19;;;;;;;2.42;1.63;;;21.50;62.50;;;;;;5059133;28;20065;-63
2022/06/09 02:58:44;;;;;;;5.05;1.52;;;21.50;62.40;;;;;;5057860;28;20069;-62
2022/06/09 03:01:10;;;;;;;3.88;1.70;;;21.50;62.50;;;;;;5056382;28;20168;-62
2022/06/09 03:03:36;;;;;;;5.15;1.83;;;21.50;62.50;;;;;;5057821;28;20067;-62
2022/06/09 03:06:03;;;;;;;2.90;1.70;;;21.50;62.40;;;;;;5056607;28;20043;-62
2022/06/09 03:08:29;;;;;;;2.92;1.60;;;21.40;62.30;;;;;;5056466;28;20044;-63
2022/06/09 03:10:55;;;;;;;4.25;1.58;;;21.50;62.40;;;;;;5056952;28;20025;-62
2022/06/09 03:13:21;;;;;;;3.90;1.80;;;21.50;62.40;;;;;;5055760;28;20043;-62
2022/06/09 03:15:47;;;;;;;5.63;2.00;;;21.50;62.40;;;;;;5056803;28;20033;-63
2022/06/09 03:18:14;;;;;;;4.15;1.52;;;21.50;62.40;;;;;;5058304;28;20083;-64
2022/06/09 03:20:40;;;;;;;2.72;1.45;;;21.50;62.30;;;;;;5057058;28;20162;-62
2022/06/09 03:23:06;;;;;;;4.10;1.60;;;21.50;63.00;;;;;;5057096;28;20613;-62
2022/06/09 03:25:32;;;;;;;3.55;1.70;;;21.40;62.20;;;;;;5054713;28;20045;-62
2022/06/09 03:27:58;;;;;;;3.85;1.55;;;21.40;62.20;;;;;;5058602;28;20033;-62
2022/06/09 03:30:24;;;;;;;3.50;1.60;;;21.40;62.20;;;;;;5058420;28;20123;-62
2022/06/09 03:32:49;;;;;;;3.60;1.60;;;21.40;62.10;;;;;;5056226;28;20052;-62
2022/06/09 03:35:16;;;;;;;5.30;1.75;;;21.40;62.20;;;;;;5055507;28;20044;-62
2022/06/09 03:37:41;;;;;;;3.03;1.50;;;21.40;62.10;;;;;;5055644;28;20037;-62
2022/06/09 03:40:13;;;;;;;3.83;1.52;;;21.40;62.10;;;;;;5057945;28;20037;-61
2022/06/09 03:42:38;;;;;;;2.28;1.25;;;21.40;62.00;;;;;;5057023;28;25040;-62
2022/06/09 03:45:04;;;;;;;4.38;2.10;;;21.40;62.00;;;;;;5055956;28;20116;-62
2022/06/09 03:47:30;;;;;;;4.78;1.77;;;21.40;62.00;;;;;;5054635;28;20048;-62
2022/06/09 03:49:55;;;;;;;3.05;1.40;;;21.40;62.10;;;;;;5054824;28;20661;-62
2022/06/09 03:52:21;;;;;;;4.20;1.60;;;21.40;62.00;;;;;;5056124;28;20036;-62
2022/06/09 03:54:47;;;;;;;4.65;1.70;;;21.40;62.00;;;;;;5054620;28;20056;-62
2022/06/09 03:57:12;;;;;;;4.63;1.75;;;21.40;62.00;;;;;;5056852;28;20040;-62
2022/06/09 03:59:38;;;;;;;3.58;1.40;;;21.40;62.00;;;;;;5055975;28;20120;-62
2022/06/09 04:02:04;;;;;;;4.07;1.35;;;21.40;61.90;;;;;;5056295;28;20041;-62
2022/06/09 04:04:29;;;;;;;3.15;1.42;;;21.40;62.00;;;;;;5057144;28;20036;-62
2022/06/09 04:06:55;;;;;;;2.50;1.30;;;21.40;62.00;;;;;;5057806;28;20041;-62
2022/06/09 04:09:21;;;;;;;3.92;1.40;;;21.40;61.90;;;;;;5054139;28;20040;-62
2022/06/09 04:11:47;;;;;;;4.00;1.75;;;21.40;61.90;;;;;;5055656;28;20049;-63
2022/06/09 04:14:12;;;;;;;2.25;1.40;;;21.40;62.60;;;;;;5057779;28;20060;-62
2022/06/09 04:16:44;;;;;;;2.67;1.30;;;21.40;61.90;;;;;;5056074;28;20033;-63
2022/06/09 04:19:11;;;;;;;3.85;1.50;;;21.40;61.90;;;;;;5056777;28;20139;-63
2022/06/09 04:21:37;;;;;;;3.67;1.30;;;21.40;61.80;;;;;;5056939;28;20072;-62
2022/06/09 04:24:03;;;;;;;2.05;1.23;;;21.40;61.70;;;;;;5039045;28;20072;-63
2022/06/09 04:26:38;;;;;;;4.13;1.67;;;21.40;61.70;;;;;;5055377;28;20082;-62
2022/06/09 04:29:06;;;;;;;4.28;1.45;;;21.40;61.70;;;;;;5057647;28;20045;-62
2022/06/09 04:31:33;;;;;;;2.03;1.33;;;21.40;61.80;;;;;;5040964;28;20032;-62
2022/06/09 04:33:58;;;;;;;4.47;1.20;;;21.40;61.60;;;;;;5054263;28;20484;-65
2022/06/09 04:36:24;;;;;;;3.63;1.35;;;21.40;61.60;;;;;;5054386;28;20037;-63
2022/06/09 04:38:50;;;;;;;2.78;1.27;;;21.40;61.60;;;;;;5055341;28;20114;-63
2022/06/09 04:41:17;;;;;;;4.22;1.50;;;21.40;61.60;;;;;;5054669;28;20448;-66
2022/06/09 04:43:45;;;;;;;2.45;1.20;;;21.40;61.60;;;;;;5057411;28;20036;-64
2022/06/09 04:46:15;;;;;;;3.92;1.60;;;21.40;61.60;;;;;;5055130;28;20040;-63
2022/06/09 04:48:41;;;;;;;3.78;1.58;;;21.40;62.20;;;;;;5054667;28;20063;-63
2022/06/09 04:51:08;;;;;;;2.88;1.10;;;21.40;61.70;;;;;;5055026;28;20504;-63
2022/06/09 04:53:35;;;;;;;3.22;1.20;;;21.40;61.60;;;;;;5055277;28;20068;-63
2022/06/09 04:56:01;;;;;;;3.42;1.40;;;21.40;61.60;;;;;;5055348;28;20028;-63
2022/06/09 04:58:26;;;;;;;3.85;1.73;;;21.40;62.40;;;;;;5053994;28;20044;-63
2022/06/09 05:00:52;;;;;;;5.63;1.40;;;21.40;61.60;;;;;;5055154;28;20465;-63
2022/06/09 05:03:19;;;;;;;2.80;1.10;;;21.40;61.40;;;;;;5056061;28;20043;-63
2022/06/09 05:05:46;;;;;;;2.65;1.20;;;21.40;61.20;;;;;;5055473;28;20044;-63
2022/06/09 05:08:13;;;;;;;4.75;1.27;;;21.40;61.90;;;;;;5056638;28;20037;-63
2022/06/09 05:10:41;;;;;;;2.95;1.20;;;21.40;61.10;;;;;;5056109;28;20041;-62
2022/06/09 05:13:07;;;;;;;1.98;1.30;;;21.40;61.10;;;;;;5054852;28;20101;-63
2022/06/09 05:15:37;;;;;;;2.65;1.20;;;21.40;61.10;;;;;;5052895;28;20029;-63
2022/06/09 05:18:03;;;;;;;2.15;1.35;;;21.40;61.10;;;;;;5054328;28;20032;-63
2022/06/09 05:20:30;;;;;;;3.40;1.42;;;21.40;61.00;;;;;;5053377;28;20143;-63
2022/06/09 05:22:56;;;;;;;2.03;1.10;;;21.40;61.00;;;;;;5052425;28;20402;-63
2022/06/09 05:25:22;;;;;;;2.88;1.10;;;21.40;61.00;;;;;;5054375;28;20032;-62
2022/06/09 05:27:48;;;;;;;1.88;0.90;;;21.40;61.10;;;;;;5053828;28;20036;-63
2022/06/09 05:30:24;;;;;;;1.67;0.95;;;21.40;61.00;;;;;;5055948;28;20091;-63
2022/06/09 05:32:50;;;;;;;2.05;0.80;;;21.40;60.90;;;;;;5054648;28;20083;-63
2022/06/09 05:35:17;;;;;;;3.08;1.20;;;21.40;60.90;;;;;;5056624;28;20071;-62
2022/06/09 05:46:06;;;;;;;2.60;1.10;;;21.40;61.00;;;;;;5055861;28;20048;-62
2022/06/09 05:48:32;;;;;;;1.67;0.90;;;21.40;61.00;;;;;;5055825;28;20116;-62
2022/06/09 05:50:59;;;;;;;2.08;1.10;;;21.40;61.00;;;;;;5035108;28;20142;-63
2022/06/09 05:53:24;;;;;;;1.42;0.65;;;21.40;61.00;;;;;;5055771;28;20028;-62
2022/06/09 05:55:50;;;;;;;2.03;1.00;;;21.40;61.00;;;;;;5052547;28;20607;-62
2022/06/09 05:58:16;;;;;;;1.77;0.90;;;21.40;60.90;;;;;;5054184;28;20040;-66
2022/06/09 06:00:41;;;;;;;3.97;0.98;;;21.40;61.00;;;;;;5035803;28;20124;-62
2022/06/09 06:03:12;;;;;;;4.32;1.40;;;21.40;60.90;;;;;;5055224;28;20078;-62
2022/06/09 06:08:23;;;;;;;3.63;1.40;;;21.40;61.00;;;;;;5054261;28;20083;-62
2022/06/09 06:10:49;;;;;;;4.32;1.70;;;21.40;61.10;;;;;;5055176;28;20072;-62
2022/06/09 06:13:15;;;;;;;1.20;1.00;;;21.40;61.30;;;;;;5054883;28;20075;-62
2022/06/09 06:15:40;;;;;;;3.22;2.10;;;21.40;61.20;;;;;;5054253;28;20492;-62
2022/06/09 06:18:06;;;;;;;3.35;1.40;;;21.40;61.30;;;;;;5055334;28;20056;-62
2022/06/09 06:20:33;;;;;;;3.20;1.70;;;21.40;61.30;;;;;;5054483;28;20381;-62
2022/06/09 06:22:59;;;;;;;2.78;1.42;;;21.40;61.30;;;;;;5053609;28;20430;-63
2022/06/09 06:25:25;;;;;;;3.90;1.70;;;21.40;61.20;;;;;;5054014;28;20044;-63
2022/06/09 06:27:51;;;;;;;2.90;1.60;;;21.40;61.30;;;;;;5053753;28;20040;-63
2022/06/09 06:30:18;;;;;;;3.08;1.80;;;21.40;61.30;;;;;;5053440;28;20044;-63
2022/06/09 06:32:45;;;;;;;5.30;2.00;;;21.40;61.30;;;;;;5053127;28;20067;-63
2022/06/09 06:35:11;;;;;;;2.40;1.48;;;21.40;61.30;;;;;;5053791;28;20214;-63
2022/06/09 06:37:37;;;;;;;4.78;1.70;;;21.40;61.40;;;;;;5052796;28;20646;-63
2022/06/09 06:40:03;;;;;;;2.45;1.60;;;21.40;61.40;;;;;;5053084;28;20088;-62
2022/06/09 06:42:30;;;;;;;4.43;1.55;;;21.40;61.40;;;;;;5051699;28;20041;-63
2022/06/09 06:44:56;;;;;;;5.00;1.52;;;21.40;61.50;;;;;;5051453;28;20049;-62
2022/06/09 06:47:22;;;;;;;3.45;2.22;;;21.40;61.50;;;;;;5052529;28;20568;-62
2022/06/09 06:49:47;;;;;;;2.85;1.98;;;21.40;61.60;;;;;;5051684;28;20135;-62
2022/06/09 06:52:13;;;;;;;2.67;1.95;;;21.40;61.60;;;;;;5052069;28;20129;-63
2022/06/09 06:54:38;;;;;;;2.88;2.00;;;21.40;61.60;;;;;;5052769;28;20060;-62
2022/06/09 06:57:05;;;;;;;4.22;1.80;;;21.40;62.40;;;;;;5052769;28;20469;-62
2022/06/09 06:59:32;;;;;;;4.28;1.80;;;21.40;61.80;;;;;;5051477;28;20045;-62
2022/06/09 07:01:59;;;;;;;4.03;1.70;;;21.40;61.80;;;;;;5052173;28;20084;-62
2022/06/09 07:04:25;;;;;;;3.40;1.90;;;21.40;61.90;;;;;;5051185;28;20048;-62
2022/06/09 07:06:51;;;;;;;4.07;1.90;;;21.40;61.80;;;;;;5052358;28;20429;-62
2022/06/09 07:09:16;;;;;;;3.33;1.83;;;21.40;61.90;;;;;;5051346;28;20037;-62
2022/06/09 07:11:44;;;;;;;2.53;1.50;;;21.40;61.80;;;;;;5052233;28;20033;-63
2022/06/09 07:14:10;;;;;;;5.78;1.90;;;21.40;61.80;;;;;;5053852;28;20032;-63
2022/06/09 07:16:36;;;;;;;3.70;1.50;;;21.40;61.80;;;;;;5052590;28;20422;-62
2022/06/09 07:19:02;;;;;;;3.78;1.60;;;21.40;61.80;;;;;;5052386;28;20992;-62
2022/06/09 07:21:27;;;;;;;2.10;1.50;;;21.40;61.90;;;;;;5053762;28;20040;-63
2022/06/09 07:23:53;;;;;;;3.15;1.80;;;21.40;62.00;;;;;;5054875;28;20125;-62
2022/06/09 07:26:19;;;;;;;3.40;1.23;;;21.40;61.90;;;;;;5055055;28;20145;-62
2022/06/09 07:28:44;;;;;;;4.00;1.60;;;21.40;61.90;;;;;;5055861;28;20029;-62
2022/06/09 07:31:10;;;;;;;16.48;9.73;;;21.40;61.90;;;;;;5054163;28;20036;-62
2022/06/09 07:33:37;;;;;;;10.02;3.45;;;21.40;62.00;;;;;;5055874;28;20048;-62
2022/06/09 07:36:07;;;;;;;29.83;11.93;;;21.40;61.90;;;;;;5054276;28;20043;-62
2022/06/09 07:38:33;;;;;;;17.52;6.78;;;21.40;62.20;;;;;;5054048;28;20041;-62
2022/06/09 07:40:59;;;;;;;23.92;8.93;;;21.40;62.20;;;;;;5053806;28;20473;-62
2022/06/09 07:43:25;;;;;;;24.83;8.95;;;21.40;62.20;;;;;;5053367;28;20203;-62
2022/06/09 07:45:51;;;;;;;18.23;6.45;;;21.40;62.40;;;;;;5054874;28;20080;-62
2022/06/09 07:48:19;;;;;;;19.88;7.18;;;21.40;62.40;;;;;;5039968;28;20045;-62
2022/06/09 07:50:47;;;;;;;20.85;6.68;;;21.50;62.70;;;;;;5052570;28;20066;-62
2022/06/09 07:53:13;;;;;;;10.68;3.42;;;21.50;62.70;;;;;;5057096;28;20388;-62
2022/06/09 07:55:39;;;;;;;13.10;4.90;;;21.40;62.00;;;;;;5054149;28;20033;-62
2022/06/09 07:58:05;;;;;;;11.05;3.72;;;21.40;62.20;;;;;;5056637;28;20049;-62
2022/06/09 08:00:31;;;;;;;9.98;3.75;;;21.40;62.10;;;;;;5054269;28;20493;-62
2022/06/09 08:02:57;;;;;;;11.13;4.07;;;21.40;62.20;;;;;;5056322;28;20378;-62
2022/06/09 08:05:26;;;;;;;10.18;2.85;;;21.40;62.40;;;;;;5056005;28;20086;-62
2022/06/09 08:07:52;;;;;;;10.30;2.38;;;21.40;62.20;;;;;;5056420;28;20056;-62
2022/06/09 08:10:21;;;;;;;4.90;2.13;;;21.40;62.20;;;;;;5055367;28;20392;-62
2022/06/09 08:12:50;;;;;;;5.38;1.63;;;21.40;62.20;;;;;;5053621;28;20060;-62
2022/06/09 08:15:16;;;;;;;4.70;1.83;;;21.40;62.50;;;;;;5053505;28;20048;-62
2022/06/09 08:17:42;;;;;;;4.15;1.90;;;21.40;61.90;;;;;;5054220;28;20361;-62
2022/06/09 08:20:09;;;;;;;3.88;1.38;;;21.40;62.10;;;;;;5056058;28;20048;-62
2022/06/09 08:22:40;;;;;;;5.75;1.88;;;21.40;62.00;;;;;;5057088;28;20477;-62
2022/06/09 08:25:07;;;;;;;4.05;1.33;;;21.40;62.30;;;;;;5055184;28;20064;-62
2022/06/09 08:27:33;;;;;;;5.32;1.70;;;21.40;61.70;;;;;;5052798;28;20642;-62
2022/06/09 08:29:59;;;;;;;3.15;1.17;;;21.40;61.60;;;;;;5054953;28;20098;-62
2022/06/09 08:32:25;;;;;;;3.67;1.40;;;21.50;61.80;;;;;;5054654;28;20068;-62
2022/06/09 08:34:50;;;;;;;5.55;1.83;;;21.40;61.50;;;;;;5054856;28;20467;-62
2022/06/09 08:37:16;;;;;;;2.95;1.20;;;21.40;61.40;;;;;;5037848;28;20121;-62
2022/06/09 08:39:41;;;;;;;5.25;1.10;;;21.40;61.60;;;;;;5054974;28;20108;-62
2022/06/09 08:42:22;;;;;;;4.22;1.17;;;21.50;61.80;;;;;;5044332;28;20061;-62
2022/06/09 08:44:56;;;;;;;2.92;1.05;;;21.40;61.70;;;;;;5054920;28;20574;-62
2022/06/09 08:47:35;;;;;;;3.08;1.00;;;21.40;61.60;;;;;;5053006;28;20401;-62
2022/06/09 08:50:21;;;;;;;3.65;1.20;;;21.40;61.40;;;;;;5053013;28;20041;-63
2022/06/09 08:53:04;;;;;;;2.10;0.88;;;21.40;61.30;;;;;;5053711;28;20048;-63
2022/06/09 08:56:02;;;;;;;3.88;1.30;;;21.40;61.40;;;;;;5053483;28;20056;-62
2022/06/09 08:58:38;;;;;;;2.83;0.98;;;21.40;61.20;;;;;;5053459;28;20540;-62
2022/06/09 09:01:22;;;;;;;2.83;0.80;;;21.40;61.10;;;;;;5053290;28;20352;-62
2022/06/09 09:04:11;;;;;;;2.58;0.80;;;21.40;61.00;;;;;;5036353;28;20113;-62
2022/06/09 09:06:52;;;;;;;2.28;0.80;;;21.40;60.60;;;;;;5050668;28;20112;-62
2022/06/09 09:09:22;;;;;;;;;;;21.40;60.70;;;;;;5051503;28;20504;-66
2022/06/09 09:12:03;;;;;;;2.50;0.90;;;21.40;60.50;;;;;;5052513;28;20415;-62
2022/06/09 09:14:48;;;;;;;2.10;0.90;;;21.40;60.80;;;;;;5049976;28;20041;-62
2022/06/09 09:17:25;;;;;;;1.80;0.80;;;21.40;60.70;;;;;;5052751;28;20830;-63
2022/06/09 09:20:01;;;;;;;2.40;0.75;;;21.40;60.60;;;;;;5052271;28;20409;-63
2022/06/09 09:22:35;;;;;;;1.67;0.68;;;21.40;60.50;;;;;;5053852;28;20119;-62
2022/06/09 09:25:26;;;;;;;3.10;0.82;;;21.40;60.20;;;;;;5054575;28;20500;-63
2022/06/09 09:28:10;;;;;;;3.40;1.00;;;21.40;59.80;;;;;;5055250;28;20095;-63
2022/06/09 09:31:21;;;;;;;1.70;0.68;;;21.40;59.80;;;;;;5055088;28;20035;-63
2022/06/09 09:33:47;;;;;;;1.85;0.70;;;21.40;59.00;;;;;;5038277;28;20048;-63
2022/06/09 09:36:26;;;;;;;2.90;0.80;;;21.40;59.20;;;;;;5025857;28;20161;-62
2022/06/09 09:39:16;;;;;;;3.13;0.77;;;21.40;59.00;;;;;;5054060;28;20389;-63
2022/06/09 09:41:42;;;;;;;2.63;0.73;;;21.40;58.90;;;;;;5052375;28;20040;-63
2022/06/09 09:44:25;;;;;;;1.33;0.60;;;21.40;59.00;;;;;;5035928;28;20678;-63
2022/06/09 09:46:59;;;;;;;2.08;0.90;;;21.40;58.80;;;;;;5053868;28;20146;-63
2022/06/09 09:49:35;;;;;;;2.00;0.80;;;21.40;58.90;;;;;;5054214;28;20080;-63
2022/06/09 09:52:01;;;;;;;2.58;0.90;;;21.40;58.80;;;;;;5053321;28;20067;-63
2022/06/09 09:54:38;;;;;;;2.72;0.65;;;21.40;58.90;;;;;;5052695;28;20074;-63
2022/06/09 09:57:20;;;;;;;2.20;0.85;;;21.40;58.80;;;;;;5053449;28;20456;-63
2022/06/09 09:59:55;;;;;;;2.70;0.65;;;21.40;58.60;;;;;;5053731;28;20035;-63
2022/06/09 10:08:41;;;;;;;1.55;0.70;;;21.40;58.20;;;;;;5037527;28;20048;-66
2022/06/09 10:14:03;;;;;;;1.45;0.60;;;21.40;57.30;;;;;;5052790;28;20098;-62
2022/06/09 10:16:32;;;;;;;2.83;0.60;;;21.30;57.50;;;;;;5036157;28;20144;-62
2022/06/09 10:19:02;;;;;;;2.30;0.88;;;21.30;58.20;;;;;;5052638;28;20052;-63
2022/06/09 10:21:47;;;;;;;2.97;0.68;;;21.40;57.40;;;;;;5055509;28;20060;-63
2022/06/09 10:24:16;;;;;;;4.18;0.90;;;21.40;57.20;;;;;;5053912;28;20040;-62
2022/06/09 10:26:42;;;;;;;1.75;0.55;;;21.30;56.90;;;;;;5055711;28;20040;-63
2022/06/09 10:29:33;;;;;;;2.00;0.57;;;21.30;56.90;;;;;;5054139;28;20051;-63
2022/06/09 10:32:10;;;;;;;4.07;0.90;;;21.30;56.50;;;;;;5017038;28;20053;-63
2022/06/09 10:35:05;;;;;;;1.63;0.52;;;21.30;56.00;;;;;;5052763;28;20052;-63
2022/06/09 10:37:49;;;;;;;1.33;0.43;;;21.30;56.20;;;;;;5056021;28;20511;-61
2022/06/09 10:40:37;;;;;;;1.90;0.75;;;21.30;55.70;;;;;;5054809;28;20036;-63
2022/06/09 10:43:54;;;;;;;2.72;0.70;;;21.30;55.40;;;;;;5054609;28;20096;-63
2022/06/09 10:46:35;;;;;;;2.08;0.88;;;21.30;56.00;;;;;;5053004;28;20052;-64
2022/06/09 10:55:16;;;;;;;3.45;0.60;;;21.30;56.20;;;;;;5055081;28;20122;-64
2022/06/09 10:57:51;;;;;;;1.92;0.70;;;21.20;56.90;;;;;;5058138;28;20118;-65
2022/06/09 11:00:39;;;;;;;0.93;0.52;;;21.30;56.30;;;;;;5056218;28;20044;-64
2022/06/09 11:03:15;;;;;;;1.42;0.73;;;21.30;56.40;;;;;;5057017;28;20059;-64
2022/06/09 11:06:17;;;;;;;2.15;0.82;;;21.30;56.40;;;;;;5055334;28;20042;-64
2022/06/09 11:08:46;;;;;;;1.65;0.60;;;21.30;56.40;;;;;;5054671;28;20473;-64
2022/06/09 11:11:55;;;;;;;2.97;0.70;;;21.30;57.30;;;;;;5038586;28;20047;-65
2022/06/09 11:14:21;;;;;;;3.17;0.90;;;21.30;56.50;;;;;;5055500;28;20082;-65
2022/06/09 11:16:52;;;;;;;1.95;0.60;;;21.30;56.70;;;;;;5055795;28;20037;-64
2022/06/09 11:19:54;;;;;;;5.38;0.80;;;21.30;56.80;;;;;;5053504;28;20037;-65
2022/06/09 11:22:39;;;;;;;3.75;0.90;;;21.30;56.70;;;;;;5054919;28;20066;-64
2022/06/09 11:25:40;;;;;;;1.52;0.65;;;21.30;56.80;;;;;;5054283;28;20033;-63
2022/06/09 11:28:09;;;;;;;2.05;0.80;;;21.30;56.80;;;;;;5056489;28;20046;-63
2022/06/09 11:30:53;;;;;;;1.58;0.57;;;21.30;56.90;;;;;;5053911;28;20045;-64
2022/06/09 11:33:40;;;;;;;1.73;0.57;;;21.30;56.80;;;;;;5053274;28;20090;-64
2022/06/09 11:36:26;;;;;;;1.08;0.50;;;21.30;56.80;;;;;;5054450;28;20041;-64
2022/06/09 11:39:12;;;;;;;3.67;0.70;;;21.30;56.80;;;;;;5054294;28;20048;-64
2022/06/09 11:42:02;;;;;;;1.13;0.57;;;21.30;56.90;;;;;;5058255;28;20117;-64
2022/06/09 11:44:37;;;;;;;1.52;0.75;;;21.30;56.90;;;;;;5057082;28;20044;-63
2022/06/09 11:47:09;;;;;;;1.83;0.73;;;21.30;57.00;;;;;;5059721;28;20044;-62
2022/06/09 11:49:45;;;;;;;0.95;0.60;;;21.30;56.90;;;;;;5056678;28;20899;-63
2022/06/09 11:52:20;;;;;;;1.40;0.60;;;21.30;56.90;;;;;;5054789;28;20498;-63
2022/06/09 11:54:49;;;;;;;1.60;0.70;;;21.30;57.00;;;;;;5055765;28;20043;-63
2022/06/09 11:57:20;;;;;;;2.47;1.10;;;21.30;57.10;;;;;;5035642;28;20049;-63
2022/06/09 11:59:52;;;;;;;2.45;0.70;;;21.40;57.10;;;;;;5054616;28;20151;-63
2022/06/09 12:03:01;;;;;;;4.20;1.05;;;21.40;57.20;;;;;;5056552;28;20051;-63
2022/06/09 12:05:45;;;;;;;3.10;0.82;;;21.40;57.20;;;;;;5027731;28;20052;-63
2022/06/09 12:08:48;;;;;;;2.65;1.17;;;21.40;57.20;;;;;;5055614;28;20408;-63
2022/06/09 12:11:18;;;;;;;2.13;0.70;;;21.40;57.10;;;;;;5054775;28;20090;-63
2022/06/09 12:14:14;;;;;;;3.22;0.98;;;21.30;57.20;;;;;;5055131;28;20037;-63
2022/06/09 12:17:11;;;;;;;2.72;0.80;;;21.40;57.20;;;;;;5035116;28;20040;-63
2022/06/09 12:19:50;;;;;;;1.88;0.80;;;21.30;57.10;;;;;;5055829;28;20040;-63
2022/06/09 12:22:40;;;;;;;3.60;0.90;;;21.30;57.20;;;;;;5052967;28;20127;-63
2022/06/09 12:25:12;;;;;;;1.92;0.90;;;21.30;57.10;;;;;;5037036;28;20041;-63
2022/06/09 12:27:37;;;;;;;2.38;0.95;;;21.30;57.20;;;;;;5054947;28;20056;-63
2022/06/09 12:30:03;;;;;;;3.50;1.10;;;21.30;57.20;;;;;;5053738;28;20550;-63
2022/06/09 12:32:47;;;;;;;3.33;0.90;;;21.40;57.20;;;;;;5044009;28;20086;-62
2022/06/09 12:35:34;;;;;;;2.50;1.00;;;21.40;57.10;;;;;;5056094;28;20507;-63
2022/06/09 12:38:02;;;;;;;1.85;0.98;;;21.40;57.10;;;;;;5054863;28;20127;-63
2022/06/09 12:40:56;;;;;;;2.92;1.10;;;21.40;57.10;;;;;;5055674;28;20075;-63
2022/06/09 12:43:45;;;;;;;2.35;0.80;;;21.40;56.90;;;;;;5052731;28;20408;-63
2022/06/09 12:46:20;;;;;;;2.95;1.00;;;21.30;56.90;;;;;;5053500;28;20067;-63
2022/06/09 12:48:46;;;;;;;2.83;0.80;;;21.40;57.00;;;;;;5054857;28;20233;-63
2022/06/09 12:51:35;;;;;;;2.88;0.85;;;21.40;57.00;;;;;;5054937;28;20097;-62
2022/06/09 12:54:07;;;;;;;3.53;1.23;;;21.40;57.60;;;;;;5057420;28;20041;-63
2022/06/09 12:56:45;;;;;;;2.28;1.40;;;21.40;56.90;;;;;;5055328;28;20032;-63
2022/06/09 12:59:34;;;;;;;4.05;1.08;;;21.40;56.80;;;;;;5056424;28;20093;-64
2022/06/09 13:02:00;;;;;;;3.60;1.20;;;21.40;56.70;;;;;;5051558;28;20036;-63
2022/06/09 13:04:28;;;;;;;4.85;0.95;;;21.40;56.70;;;;;;5054959;28;20095;-63
2022/06/09 13:06:56;;;;;;;3.60;1.02;;;21.40;56.70;;;;;;5054405;28;20044;-63
2022/06/09 13:09:33;;;;;;;2.38;1.10;;;21.40;56.70;;;;;;5056181;28;20127;-63
2022/06/09 13:14:47;;;;;;;3.60;1.00;;;21.40;56.70;;;;;;5052665;28;20040;-63
2022/06/09 13:17:17;;;;;;;2.88;1.10;;;21.40;56.70;;;;;;5053160;28;20029;-63
2022/06/09 13:20:03;;;;;;;3.80;1.20;;;21.40;56.60;;;;;;5053337;28;20060;-63
2022/06/09 13:22:29;;;;;;;3.20;1.10;;;21.40;56.40;;;;;;5041835;28;20033;-63
2022/06/09 13:24:56;;;;;;;2.10;0.98;;;21.40;56.50;;;;;;5053525;28;20029;-63
2022/06/09 13:27:26;;;;;;;1.92;1.08;;;21.40;56.40;;;;;;5053880;28;20094;-63
2022/06/09 13:29:54;;;;;;;4.60;1.33;;;21.40;56.40;;;;;;5038301;28;20063;-62
2022/06/09 13:32:28;;;;;;;2.45;1.15;;;21.40;56.30;;;;;;5053843;28;20384;-62
2022/06/09 13:34:59;;;;;;;3.92;1.35;;;21.40;56.30;;;;;;5055191;28;20056;-62
2022/06/09 13:37:36;;;;;;;;;;;21.40;56.30;;;;;;5055791;28;20758;-63
2022/06/09 13:40:15;;;;;;;4.38;1.13;;;21.40;56.20;;;;;;5052861;28;19927;-63